createdAt,value
2023-03-06T00:01:59.507Z,1.61
2023-03-06T00:04:26.065Z,1.59
2023-03-06T00:06:54.019Z,1.58
2023-03-06T00:09:20.478Z,1.51
2023-03-06T00:11:46.971Z,1.43
2023-03-06T00:14:13.483Z,1.40
2023-03-06T00:16:40.071Z,1.39
2023-03-06T00:19:06.555Z,1.38
2023-03-06T00:21:32.973Z,1.38
2023-03-06T00:23:59.409Z,1.34
2023-03-06T00:26:25.977Z,1.32
2023-03-06T00:28:52.470Z,1.29
2023-03-06T00:31:18.927Z,1.27
2023-03-06T00:33:45.460Z,1.28
2023-03-06T00:36:11.913Z,1.27
2023-03-06T00:38:40.661Z,1.29
2023-03-06T00:41:08.814Z,1.31
2023-03-06T00:43:35.232Z,1.29
2023-03-06T00:46:02.049Z,1.28
2023-03-06T00:48:28.576Z,1.30
2023-03-06T00:50:55.065Z,1.29
2023-03-06T00:53:21.524Z,1.30
2023-03-06T00:55:50.289Z,1.28
2023-03-06T00:58:17.166Z,1.27
2023-03-06T01:00:44.292Z,1.25
2023-03-06T01:03:10.997Z,1.25
2023-03-06T01:05:37.965Z,1.24
2023-03-06T01:08:06.304Z,1.28
2023-03-06T01:10:33.506Z,1.30
2023-03-06T01:12:59.973Z,1.35
2023-03-06T01:15:26.421Z,1.33
2023-03-06T01:17:54.458Z,1.35
2023-03-06T01:20:21.886Z,1.33
2023-03-06T01:22:48.518Z,1.27
2023-03-06T01:25:15.042Z,1.30
2023-03-06T01:27:42.453Z,1.26
2023-03-06T01:30:11.265Z,1.25
2023-03-06T01:32:38.707Z,1.25
2023-03-06T01:35:06.364Z,1.21
2023-03-06T01:37:34.980Z,1.23
2023-03-06T01:40:02.625Z,1.20
2023-03-06T01:42:29.981Z,1.18
2023-03-06T01:45:12.390Z,1.11
2023-03-06T01:47:39.251Z,1.10
2023-03-06T01:50:08.616Z,1.06
2023-03-06T01:52:43.230Z,1.03
2023-03-06T01:55:19.446Z,0.98
2023-03-06T01:57:48.341Z,0.95
2023-03-06T02:00:21.302Z,0.92
2023-03-06T02:02:53.854Z,0.88
2023-03-06T02:05:21.047Z,0.86
2023-03-06T02:07:48.452Z,0.80
2023-03-06T02:10:16.221Z,0.75
2023-03-06T02:12:46.670Z,0.71
2023-03-06T02:15:16.493Z,0.68
2023-03-06T02:17:45.646Z,0.63
2023-03-06T02:20:21.174Z,0.60
2023-03-06T02:23:10.140Z,0.57
2023-03-06T02:25:49.490Z,0.58
2023-03-06T02:28:19.514Z,0.53
2023-03-06T02:30:47.509Z,0.49
2023-03-06T02:33:16.561Z,0.51
2023-03-06T02:35:49.978Z,0.51
2023-03-06T02:38:18.327Z,0.54
2023-03-06T02:40:48.818Z,0.58
2023-03-06T02:43:20.055Z,0.59
2023-03-06T02:45:49.991Z,0.62
2023-03-06T02:48:18.669Z,0.69
2023-03-06T02:50:46.180Z,0.75
2023-03-06T02:53:14.283Z,0.81
2023-03-06T02:55:40.934Z,0.83
2023-03-06T02:58:08.115Z,0.92
2023-03-06T03:00:35.016Z,0.99
2023-03-06T03:03:05.040Z,1.05
2023-03-06T03:05:31.885Z,1.13
2023-03-06T03:08:05.265Z,1.13
2023-03-06T03:10:32.892Z,1.17
2023-03-06T03:12:59.437Z,1.21
2023-03-06T03:15:26.272Z,1.25
2023-03-06T03:17:52.755Z,1.28
2023-03-06T03:20:21.292Z,1.32
2023-03-06T03:22:53.797Z,1.31
2023-03-06T03:25:22.191Z,1.32
2023-03-06T03:27:48.888Z,1.37
2023-03-06T03:30:15.831Z,1.39
2023-03-06T03:32:42.387Z,1.39
2023-03-06T03:35:10.731Z,1.45
2023-03-06T03:37:37.883Z,1.47
2023-03-06T03:40:06.585Z,1.49
2023-03-06T03:42:33.327Z,1.50
2023-03-06T03:44:59.882Z,1.50
2023-03-06T03:47:27.174Z,1.54
2023-03-06T03:49:53.742Z,1.54
2023-03-06T03:52:20.971Z,1.54
2023-03-06T03:54:47.407Z,1.58
2023-03-06T03:57:13.919Z,1.59
2023-03-06T03:59:45.626Z,1.62
2023-03-06T04:02:44.885Z,1.63
2023-03-06T04:05:21.024Z,1.66
2023-03-06T04:07:48.326Z,1.70
2023-03-06T04:10:15.607Z,1.72
2023-03-06T04:12:42.624Z,1.71
2023-03-06T04:15:11.044Z,1.69
2023-03-06T04:17:38.489Z,1.74
2023-03-06T04:20:08.826Z,1.74
2023-03-06T04:22:36.289Z,1.74
2023-03-06T04:25:03.442Z,1.77
2023-03-06T04:27:29.951Z,1.78
2023-03-06T04:29:56.606Z,1.79
2023-03-06T04:32:23.997Z,1.83
2023-03-06T04:34:50.881Z,1.83
2023-03-06T04:37:22.940Z,1.83
2023-03-06T04:39:49.767Z,1.86
2023-03-06T04:42:16.299Z,1.88
2023-03-06T04:44:42.884Z,1.91
2023-03-06T04:47:09.617Z,1.93
2023-03-06T04:49:36.278Z,1.90
2023-03-06T04:52:02.865Z,1.88
2023-03-06T04:54:29.320Z,1.90
2023-03-06T04:56:55.944Z,1.90
2023-03-06T04:59:22.344Z,1.92
2023-03-06T05:01:48.900Z,1.96
2023-03-06T05:04:15.419Z,2.00
2023-03-06T05:06:41.958Z,2.02
2023-03-06T05:09:08.476Z,2.05
2023-03-06T05:11:34.944Z,2.08
2023-03-06T05:14:01.535Z,2.10
2023-03-06T05:16:28.076Z,2.10
2023-03-06T05:18:54.494Z,2.11
2023-03-06T05:21:20.975Z,2.12
2023-03-06T05:23:47.585Z,2.14
2023-03-06T05:26:15.108Z,2.17
2023-03-06T05:28:41.614Z,2.19
2023-03-06T05:31:08.023Z,2.21
2023-03-06T05:33:35.854Z,2.22
2023-03-06T05:36:02.859Z,2.22
2023-03-06T05:38:29.410Z,2.21
2023-03-06T05:40:56.033Z,2.23
2023-03-06T05:43:22.466Z,2.24
2023-03-06T05:45:50.437Z,2.24
2023-03-06T05:48:17.109Z,2.23
2023-03-06T05:50:43.595Z,2.19
2023-03-06T05:53:10.230Z,2.10
2023-03-06T05:55:36.814Z,2.05
2023-03-06T05:58:03.333Z,2.01
2023-03-06T06:00:29.929Z,1.97
2023-03-06T06:02:56.320Z,1.94
2023-03-06T06:05:22.798Z,1.92
2023-03-06T06:07:49.251Z,1.87
2023-03-06T06:10:15.863Z,1.87
2023-03-06T06:12:42.379Z,1.85
2023-03-06T06:15:09.153Z,1.85
2023-03-06T06:17:35.760Z,1.90
2023-03-06T06:20:02.359Z,1.95
2023-03-06T06:22:28.899Z,2.01
2023-03-06T06:24:55.438Z,2.09
2023-03-06T06:27:21.863Z,2.15
2023-03-06T06:29:51.230Z,2.21
2023-03-06T06:32:17.792Z,2.26
2023-03-06T06:34:44.279Z,2.31
2023-03-06T06:37:10.783Z,2.33
2023-03-06T06:39:37.238Z,2.38
2023-03-06T06:42:28.189Z,2.42
2023-03-06T06:44:50.265Z,2.49
2023-03-06T06:47:25.606Z,2.55
2023-03-06T06:49:54.476Z,2.58
2023-03-06T06:52:21.778Z,2.64
2023-03-06T06:54:48.228Z,2.73
2023-03-06T06:57:15.809Z,2.78
2023-03-06T06:59:42.706Z,2.88
2023-03-06T07:02:13.800Z,2.99
2023-03-06T07:04:52.192Z,3.04
2023-03-06T07:07:25.354Z,3.09
2023-03-06T07:09:51.993Z,3.14
2023-03-06T07:12:18.531Z,3.22
2023-03-06T07:14:44.995Z,3.24
2023-03-06T07:17:11.428Z,3.29
2023-03-06T07:19:38.687Z,3.36
2023-03-06T07:22:05.771Z,3.53
2023-03-06T07:24:32.299Z,4.12
2023-03-06T07:26:58.799Z,5.53
2023-03-06T07:29:25.337Z,5.90
2023-03-06T07:31:52.120Z,5.54
2023-03-06T07:34:18.527Z,5.93
2023-03-06T07:36:45.005Z,6.82
2023-03-06T07:39:11.485Z,7.58
2023-03-06T07:41:37.979Z,8.33
2023-03-06T07:44:04.463Z,9.48
2023-03-06T07:46:31.089Z,10.66
2023-03-06T07:48:58.203Z,11.07
2023-03-06T07:51:25.253Z,9.88
2023-03-06T07:53:51.765Z,8.49
2023-03-06T07:56:18.313Z,7.51
2023-03-06T07:58:46.915Z,7.01
2023-03-06T08:01:16.637Z,6.78
2023-03-06T08:03:43.813Z,6.47
2023-03-06T08:06:16.088Z,6.43
2023-03-06T08:08:44.405Z,6.37
2023-03-06T08:11:12.276Z,6.36
2023-03-06T08:13:39.510Z,6.31
2023-03-06T08:16:06.616Z,6.32
2023-03-06T08:18:33.607Z,6.26
2023-03-06T08:21:12.875Z,6.22
2023-03-06T08:23:40.251Z,6.29
2023-03-06T08:26:10.710Z,6.25
2023-03-06T08:28:37.264Z,6.37
2023-03-06T08:31:14.319Z,6.42
2023-03-06T08:33:40.860Z,6.47
2023-03-06T08:36:07.541Z,6.48
2023-03-06T08:38:34.003Z,6.52
2023-03-06T08:41:00.612Z,6.61
2023-03-06T08:43:27.093Z,6.67
2023-03-06T08:45:58.619Z,6.75
2023-03-06T08:48:25.507Z,7.85
2023-03-06T08:50:52.201Z,10.60
2023-03-06T08:53:18.762Z,12.37
2023-03-06T08:55:45.630Z,13.96
2023-03-06T08:58:12.205Z,15.73
2023-03-06T09:00:38.924Z,16.93
2023-03-06T09:03:05.779Z,16.27
2023-03-06T09:05:32.361Z,14.76
2023-03-06T09:07:58.838Z,14.71
2023-03-06T09:10:26.155Z,15.56
2023-03-06T09:12:55.118Z,16.34
2023-03-06T09:15:23.570Z,16.35
2023-03-06T09:17:50.882Z,15.10
2023-03-06T09:20:18.732Z,14.52
2023-03-06T09:22:45.886Z,14.69
2023-03-06T09:25:13.893Z,16.05
2023-03-06T09:27:40.871Z,16.75
2023-03-06T09:30:08.378Z,16.68
2023-03-06T09:32:34.954Z,16.39
2023-03-06T09:35:01.462Z,17.29
2023-03-06T09:37:27.966Z,18.82
2023-03-06T09:39:54.443Z,19.95
2023-03-06T09:42:23.600Z,19.51
2023-03-06T09:44:59.802Z,20.31
2023-03-06T09:47:44.603Z,18.53
2023-03-06T09:50:42.610Z,17.82
2023-03-06T09:53:18.619Z,19.25
2023-03-06T09:56:00.874Z,18.07
2023-03-06T09:58:29.818Z,17.29
2023-03-06T10:01:17.964Z,16.67
2023-03-06T10:03:59.674Z,13.80
2023-03-06T10:06:55.435Z,12.77
2023-03-06T10:09:27.884Z,11.58
2023-03-06T10:12:00.125Z,11.23
2023-03-06T10:14:37.362Z,12.83
2023-03-06T10:17:05.307Z,13.24
2023-03-06T10:19:37.620Z,12.92
2023-03-06T10:22:26.202Z,12.74
2023-03-06T10:25:33.308Z,13.93
2023-03-06T10:28:08.630Z,14.12
2023-03-06T10:30:46.210Z,14.63
2023-03-06T10:33:21.699Z,16.27
2023-03-06T10:35:53.367Z,15.66
2023-03-06T10:38:21.713Z,15.58
2023-03-06T10:41:02.021Z,15.15
2023-03-06T10:43:28.552Z,14.33
2023-03-06T10:45:55.165Z,14.24
2023-03-06T10:48:25.837Z,15.25
2023-03-06T10:50:54.838Z,16.52
2023-03-06T10:53:29.061Z,17.84
2023-03-06T10:56:00.158Z,19.31
2023-03-06T10:58:32.250Z,19.43
2023-03-06T11:01:07.085Z,19.10
2023-03-06T11:03:35.727Z,18.15
2023-03-06T11:06:30.538Z,16.53
2023-03-06T11:09:14.000Z,16.85
2023-03-06T11:11:40.625Z,17.30
2023-03-06T11:14:19.015Z,17.08
2023-03-06T11:16:53.657Z,14.59
2023-03-06T11:19:27.935Z,13.57
2023-03-06T11:22:19.409Z,15.67
2023-03-06T11:24:53.539Z,13.54
2023-03-06T11:27:34.412Z,12.25
2023-03-06T11:30:10.096Z,11.82
2023-03-06T11:32:52.366Z,11.33
2023-03-06T11:35:24.480Z,11.21
2023-03-06T11:38:17.054Z,10.74
2023-03-06T11:40:51.334Z,10.59
2023-03-06T11:43:35.264Z,10.50
2023-03-06T11:46:19.750Z,11.25
2023-03-06T11:49:18.677Z,10.65
2023-03-06T11:51:53.036Z,10.78
2023-03-06T11:54:19.785Z,11.23
2023-03-06T11:57:05.825Z,11.37
2023-03-06T12:00:02.229Z,10.98
2023-03-06T12:02:59.469Z,10.83
2023-03-06T12:05:32.619Z,10.93
2023-03-06T12:08:24.881Z,10.38
2023-03-06T12:10:53.091Z,10.03
2023-03-06T12:13:28.676Z,9.89
2023-03-06T12:16:13.489Z,9.85
2023-03-06T12:18:50.850Z,9.99
2023-03-06T12:21:37.474Z,9.86
2023-03-06T12:24:24.262Z,9.94
2023-03-06T12:27:03.107Z,10.15
2023-03-06T12:29:38.808Z,9.97
2023-03-06T12:32:14.839Z,9.75
2023-03-06T12:34:59.141Z,9.75
2023-03-06T12:38:08.785Z,10.06
2023-03-06T12:40:58.449Z,10.26
2023-03-06T12:43:24.814Z,10.45
2023-03-06T12:46:03.550Z,10.49
2023-03-06T12:48:34.895Z,9.99
2023-03-06T12:51:02.370Z,9.68
2023-03-06T12:53:31.930Z,9.42
2023-03-06T12:56:01.967Z,9.27
2023-03-06T12:58:28.708Z,9.27
2023-03-06T13:01:14.565Z,9.41
2023-03-06T13:04:04.893Z,9.83
2023-03-06T13:06:50.757Z,10.00
2023-03-06T13:09:29.482Z,9.93
2023-03-06T13:12:25.540Z,10.18
2023-03-06T13:14:57.513Z,10.27
2023-03-06T13:17:27.361Z,10.19
2023-03-06T13:20:15.575Z,9.98
2023-03-06T13:22:44.844Z,10.11
2023-03-06T13:25:17.041Z,10.03
2023-03-06T13:27:55.611Z,9.83
2023-03-06T13:30:51.939Z,9.70
2023-03-06T13:33:39.080Z,9.59
2023-03-06T13:36:25.163Z,9.54
2023-03-06T13:38:51.791Z,9.48
2023-03-06T13:41:24.832Z,9.48
2023-03-06T13:43:56.753Z,9.39
2023-03-06T13:46:26.034Z,9.33
2023-03-06T13:49:07.873Z,9.30
2023-03-06T13:52:01.678Z,9.17
2023-03-06T13:54:37.263Z,9.07
2023-03-06T13:57:34.874Z,8.84
2023-03-06T14:00:16.311Z,8.63
2023-03-06T14:02:58.139Z,8.57
2023-03-06T14:05:33.143Z,8.49
2023-03-06T14:08:15.698Z,8.61
2023-03-06T14:10:44.791Z,8.73
2023-03-06T14:13:22.918Z,8.68
2023-03-06T14:15:52.582Z,8.61
2023-03-06T14:18:23.813Z,8.52
2023-03-06T14:21:13.332Z,8.54
2023-03-06T14:23:45.747Z,8.42
2023-03-06T14:26:17.233Z,8.48
2023-03-06T14:28:46.053Z,8.37
2023-03-06T14:31:18.855Z,8.26
2023-03-06T14:33:54.506Z,8.11
2023-03-06T14:36:23.402Z,7.92
2023-03-06T14:38:53.803Z,7.75
2023-03-06T14:41:35.254Z,7.80
2023-03-06T14:44:07.669Z,7.79
2023-03-06T14:46:34.152Z,7.76
2023-03-06T14:49:00.745Z,7.74
2023-03-06T14:51:27.678Z,7.68
2023-03-06T14:54:00.709Z,7.44
2023-03-06T14:56:27.594Z,7.13
2023-03-06T14:59:01.364Z,6.88
2023-03-06T15:01:31.140Z,6.84
2023-03-06T15:04:00.738Z,6.66
2023-03-06T15:06:39.521Z,6.50
2023-03-06T15:09:15.506Z,6.52
2023-03-06T15:11:59.117Z,6.73
2023-03-06T15:14:48.073Z,6.86
2023-03-06T15:17:17.500Z,6.90
2023-03-06T15:19:49.950Z,6.94
2023-03-06T15:22:30.628Z,6.99
2023-03-06T15:25:20.760Z,7.10
2023-03-06T15:27:53.168Z,7.06
2023-03-06T15:30:25.878Z,6.88
2023-03-06T15:33:08.096Z,6.87
2023-03-06T15:35:38.202Z,6.88
2023-03-06T15:38:24.144Z,6.86
2023-03-06T15:40:58.592Z,6.85
2023-03-06T15:43:25.282Z,6.81
2023-03-06T15:45:58.662Z,6.81
2023-03-06T15:48:25.567Z,6.69
2023-03-06T15:50:52.277Z,6.63
2023-03-06T15:53:20.235Z,6.69
2023-03-06T15:55:47.241Z,6.47
2023-03-06T15:58:17.335Z,6.27
2023-03-06T16:00:44.340Z,6.35
2023-03-06T16:03:11.720Z,6.22
2023-03-06T16:05:38.670Z,6.13
2023-03-06T16:08:05.857Z,5.99
2023-03-06T16:10:37.297Z,5.94
2023-03-06T16:13:13.740Z,5.92
2023-03-06T16:15:46.438Z,5.71
2023-03-06T16:18:13.575Z,5.54
2023-03-06T16:20:41.497Z,5.44
2023-03-06T16:23:10.517Z,5.36
2023-03-06T16:25:39.324Z,5.38
2023-03-06T16:28:11.519Z,5.24
2023-03-06T16:30:38.452Z,5.15
2023-03-06T16:33:05.231Z,5.03
2023-03-06T16:35:31.886Z,5.05
2023-03-06T16:37:59.861Z,4.94
2023-03-06T16:40:30.334Z,4.94
2023-03-06T16:42:56.781Z,4.93
2023-03-06T16:45:24.441Z,4.92
2023-03-06T16:47:51.111Z,4.80
2023-03-06T16:50:32.405Z,4.60
2023-03-06T16:52:59.315Z,4.58
2023-03-06T16:55:27.130Z,4.53
2023-03-06T16:57:54.108Z,4.52
2023-03-06T17:00:22.104Z,4.48
2023-03-06T17:02:49.144Z,4.46
2023-03-06T17:05:15.976Z,4.45
2023-03-06T17:07:42.488Z,4.33
2023-03-06T17:10:12.219Z,4.35
2023-03-06T17:12:38.907Z,4.38
2023-03-06T17:15:06.504Z,4.30
2023-03-06T17:17:33.636Z,4.33
2023-03-06T17:20:00.773Z,4.33
2023-03-06T17:22:27.748Z,4.29
2023-03-06T17:24:54.550Z,4.31
2023-03-06T17:27:22.657Z,4.26
2023-03-06T17:29:49.159Z,4.21
2023-03-06T17:32:15.657Z,4.18
2023-03-06T17:34:42.344Z,4.17
2023-03-06T17:37:08.881Z,4.16
2023-03-06T17:39:37.355Z,4.18
2023-03-06T17:42:05.492Z,4.16
2023-03-06T17:44:34.220Z,4.12
2023-03-06T17:47:00.730Z,4.11
2023-03-06T17:49:27.289Z,4.13
2023-03-06T17:51:55.082Z,4.15
2023-03-06T17:54:21.533Z,4.14
2023-03-06T17:56:48.273Z,4.11
2023-03-06T17:59:14.893Z,4.09
2023-03-06T18:01:41.482Z,4.08
2023-03-06T18:04:08.043Z,4.03
2023-03-06T18:06:34.577Z,4.04
2023-03-06T18:09:01.776Z,4.04
2023-03-06T18:11:28.392Z,4.05
2023-03-06T18:13:54.892Z,4.07
2023-03-06T18:16:24.726Z,4.04
2023-03-06T18:18:55.956Z,4.00
2023-03-06T18:21:23.541Z,3.99
2023-03-06T18:23:50.643Z,3.94
2023-03-06T18:26:25.773Z,3.92
2023-03-06T18:28:53.361Z,3.90
2023-03-06T18:31:21.592Z,3.88
2023-03-06T18:33:49.145Z,3.83
2023-03-06T18:36:16.859Z,3.76
2023-03-06T18:38:45.461Z,3.69
2023-03-06T18:41:13.449Z,3.63
2023-03-06T18:43:40.068Z,3.60
2023-03-06T18:46:06.857Z,3.61
2023-03-06T18:48:33.454Z,3.64
2023-03-06T18:51:07.741Z,3.66
2023-03-06T18:53:34.905Z,3.65
2023-03-06T18:56:02.315Z,3.62
2023-03-06T18:58:28.959Z,3.63
2023-03-06T19:00:57.706Z,3.57
2023-03-06T19:03:25.438Z,3.54
2023-03-06T19:05:51.913Z,3.48
2023-03-06T19:08:18.512Z,3.42
2023-03-06T19:10:47.324Z,3.35
2023-03-06T19:13:14.717Z,3.33
2023-03-06T19:15:45.763Z,3.27
2023-03-06T19:18:16.042Z,3.23
2023-03-06T19:20:43.446Z,3.20
2023-03-06T19:23:10.821Z,3.19
2023-03-06T19:25:37.361Z,3.18
2023-03-06T19:28:04.031Z,3.16
2023-03-06T19:30:30.534Z,3.19
2023-03-06T19:32:57.234Z,3.14
2023-03-06T19:35:25.013Z,3.12
2023-03-06T19:37:52.022Z,3.13
2023-03-06T19:40:19.453Z,3.13
2023-03-06T19:42:46.693Z,3.12
2023-03-06T19:45:13.307Z,3.14
2023-03-06T19:47:39.956Z,3.15
2023-03-06T19:50:06.906Z,3.11
2023-03-06T19:52:36.452Z,3.08
2023-03-06T19:55:02.945Z,3.13
2023-03-06T19:57:29.469Z,3.07
2023-03-06T19:59:58.201Z,3.10
2023-03-06T20:02:27.143Z,3.10
2023-03-06T20:04:54.863Z,3.06
2023-03-06T20:07:21.818Z,3.10
2023-03-06T20:09:48.385Z,3.07
2023-03-06T20:12:15.523Z,3.07
2023-03-06T20:14:42.845Z,3.16
2023-03-06T20:17:09.253Z,3.18
2023-03-06T20:19:36.490Z,3.16
2023-03-06T20:22:03.220Z,3.17
2023-03-06T20:24:29.623Z,3.22
2023-03-06T20:26:57.647Z,3.23
2023-03-06T20:29:26.644Z,3.25
2023-03-06T20:31:56.032Z,3.29
2023-03-06T20:34:23.386Z,3.31
2023-03-06T20:36:50.315Z,3.35
2023-03-06T20:39:19.188Z,3.36
2023-03-06T20:41:46.694Z,3.38
2023-03-06T20:44:17.059Z,3.44
2023-03-06T20:46:44.238Z,3.47
2023-03-06T20:49:12.314Z,3.49
2023-03-06T20:51:39.551Z,3.54
2023-03-06T20:54:08.677Z,3.56
2023-03-06T20:56:36.675Z,3.58
2023-03-06T20:59:03.309Z,3.61
2023-03-06T21:01:32.115Z,3.61
2023-03-06T21:03:59.399Z,3.63
2023-03-06T21:06:28.010Z,3.65
2023-03-06T21:08:55.691Z,3.68
2023-03-06T21:11:22.132Z,3.72
2023-03-06T21:13:48.636Z,3.76
2023-03-06T21:16:18.649Z,3.80
2023-03-06T21:18:46.133Z,3.80
2023-03-06T21:21:16.269Z,3.82
2023-03-06T21:23:42.804Z,3.86
2023-03-06T21:26:14.061Z,3.86
2023-03-06T21:28:41.097Z,3.89
2023-03-06T21:31:09.983Z,3.92
2023-03-06T21:33:37.132Z,3.94
2023-03-06T21:36:04.331Z,3.97
2023-03-06T21:38:31.175Z,3.99
2023-03-06T21:41:26.666Z,4.00
2023-03-06T21:43:58.358Z,4.04
2023-03-06T21:46:26.484Z,4.06
2023-03-06T21:48:53.622Z,4.07
2023-03-06T21:51:21.178Z,4.11
2023-03-06T21:53:48.358Z,4.16
2023-03-06T21:56:17.078Z,4.17
2023-03-06T21:58:44.215Z,4.18
2023-03-06T22:01:20.046Z,4.18
2023-03-06T22:03:46.831Z,4.22
2023-03-06T22:06:16.590Z,4.24
2023-03-06T22:08:43.979Z,4.28
2023-03-06T22:11:13.628Z,4.30
2023-03-06T22:13:40.615Z,4.31
2023-03-06T22:16:07.792Z,4.28
2023-03-06T22:18:35.453Z,4.27
2023-03-06T22:21:09.435Z,4.23
2023-03-06T22:23:36.229Z,4.19
2023-03-06T22:26:07.794Z,4.19
2023-03-06T22:28:34.932Z,4.20
2023-03-06T22:31:07.707Z,4.18
2023-03-06T22:33:34.519Z,4.17
2023-03-06T22:36:05.288Z,4.15
2023-03-06T22:38:35.817Z,4.14
2023-03-06T22:41:03.789Z,4.14
2023-03-06T22:43:32.257Z,4.10
2023-03-06T22:46:09.832Z,4.05
2023-03-06T22:48:36.603Z,4.03
2023-03-06T22:51:09.471Z,4.00
2023-03-06T22:53:37.052Z,3.99
2023-03-06T22:56:05.552Z,3.96
2023-03-06T22:58:37.241Z,3.95
2023-03-06T23:01:15.610Z,3.90
2023-03-06T23:03:44.583Z,3.92
2023-03-06T23:06:17.143Z,3.97
2023-03-06T23:08:48.106Z,3.99
2023-03-06T23:11:16.512Z,3.99
2023-03-06T23:14:01.722Z,3.95
2023-03-06T23:16:46.688Z,3.90
2023-03-06T23:19:31.846Z,3.86
2023-03-06T23:22:16.903Z,3.83
2023-03-06T23:25:02.018Z,3.81
2023-03-06T23:27:29.314Z,3.81
2023-03-06T23:29:58.826Z,3.79
2023-03-06T23:32:25.414Z,3.81
2023-03-06T23:34:51.886Z,3.83
2023-03-06T23:37:18.333Z,3.84
2023-03-06T23:39:45.389Z,3.82
2023-03-06T23:42:11.862Z,3.87
2023-03-06T23:44:38.343Z,3.91
2023-03-06T23:47:04.923Z,3.97
2023-03-06T23:49:31.372Z,4.02
2023-03-06T23:51:58.120Z,4.07
2023-03-06T23:54:24.612Z,4.13
2023-03-06T23:56:51.037Z,4.17
2023-03-06T23:59:17.447Z,4.18
